Tiempo atmosférico en la estación meteorológica de Fregenal De La Sierra, Badajoz (586 m.)



Fecha
DESCASC
Temp. máxima en grados centígrados (hora)
DESCASC
Temp. mínima en grados centígrados (hora)
DESCASC
Temp. media en grados centígrados
DESCASC
Racha de viento máxima en m/sg (hora)
DESCASC
Velocidad máxima media en intervalos de 10 minutos(hora)
DESCASC
Precipitaciones diarias en mm
DESCASC
Precipitaciones de 00:00 a 06:00 en mm
DESCASC
Precipitaciones de 06:00 a 12:00 en mm
DESCASC
Precipitaciones de 12:00 a 18:00 en mm
DESCASC
Precipitaciones de 18:00 a 24:00 en mm
DESCASC
22-01-2020 6.2 (18:10) 4.1 (06:50) 5.1 7.78 (13:00) 3.89 (20:30) 4.4 0.2 0.2 1.6 2.4
21-01-2020 8.5 (14:20) 3 (08:50) 5.8 12.22 (01:50) 7.5 (13:40) 0 0 0 0 0
20-01-2020 6.8 (13:00) 2.6 (08:30) 4.7 15.83 (11:50) 8.61 (11:50) 0 0 0 0 0
19-01-2020 11.3 (16:00) 5.3 (00:00) 8.3 12.5 (01:40) 6.67 (14:20) 0.2 0.2 0 0 0
18-01-2020 13.6 (17:10) 6.1 (00:00) 9.9 11.94 (22:20) 5.56 (22:20) 14.2 0 9.4 4.8 0
17-01-2020 14.5 (15:30) 5.1 (00:00) 9.8 6.11 (00:10) 3.33 (00:10) 2.6 2.6 0 0 0
16-01-2020 15.3 (15:10) 6.1 (00:00) 10.7 9.17 (21:50) 4.44 (16:10) 0.6 0.2 0 0.2 0.2
15-01-2020 12.8 (11:50) 6.1 (00:00) 9.5 9.44 (12:20) 5 (11:10) 0.8 0 0 0.8 0
14-01-2020 10.8 (12:20) -1.3 (-00:0) 4.8 7.22 (16:20) 3.61 (18:00) 0 0 0 0 0
13-01-2020 12.8 (15:10) -1.4 (-00:0) 5.7 7.22 (13:20) 2.78 (13:20) 0 0 0 0 0
12-01-2020 13.7 (13:30) -1.1 (-00:0) 6.3 4.72 (14:20) 2.78 (14:20) 0 0 0 0 0
11-01-2020 12.3 (16:00) -0.5 (-00:0) 5.9 6.94 (14:30) 3.61 (12:30) 0 0 0 0 0
10-01-2020 10.7 (16:20) 1.3 (00:00) 6 7.78 (01:50) 4.44 (12:00) 0 0 0 0 0
09-01-2020 14 (15:40) 0.2 (00:00) 7.1 6.39 (23:50) 2.78 (19:20) 0 0 0 0 0
08-01-2020 19.2 (15:50) 0.3 (00:00) 9.8 2.78 (16:50) 1.67 (16:50) 0 0 0 0 0
07-01-2020 16.6 (15:20) 0.7 (00:00) 8.7 3.89 (15:50) 2.5 (15:50) 0 0 0 0 0
06-01-2020 16.2 (15:30) 0.3 (00:00) 8.3 3.33 (21:20) 1.94 (20:20) 0 0 0 0 0
05-01-2020 13.1 (15:40) 1.3 (00:00) 7.2 5.56 (16:00) 3.33 (14:20) 0 0 0 0 0
04-01-2020 11.7 (15:10) 2.5 (00:00) 7.1 7.22 (11:30) 4.17 (11:20) 0.2 0 0.2 0 0
03-01-2020 11.1 (15:20) 5.1 (00:00) 8.1 5.28 (15:20) 2.5 (15:30) 0 0 0 0 0
02-01-2020 14.8 (14:10) 2 (00:00) 8.4 4.72 (15:00) 2.5 (13:40) 0 0 0 0 0
01-01-2020 17.1 (14:30) 2 (00:00) 9.6 4.17 (16:00) 2.5 (16:00) 0.2 0 0.2 0 0
31-12-2019 17.5 (14:00) 1.1 (00:00) 9.3 3.33 (14:20) 1.67 (14:30) 0 0 0 0 0
30-12-2019 17.7 (15:10) 1 (00:00) 9.4 3.33 (16:10) 1.94 (16:10) 0 0 0 0 0
29-12-2019 20.8 (14:30) 3.8 (00:00) 12.3 3.33 (16:10) 1.67 (14:50) 0 0 0 0 0
28-12-2019 20.8 (14:30) 4.3 (00:00) 12.5 3.33 (15:10) 1.94 (15:50) 0 0 0 0 0
27-12-2019 21.1 (15:20) 5 (00:00) 13.1 5.28 (14:40) 3.33 (14:50) 0 0 0 0 0
26-12-2019 14.8 (13:10) 5.9 (00:00) 10.4 4.72 (15:40) 2.5 (01:00) 0 0 0 0 0
25-12-2019 21.9 (14:30) 5.5 (00:00) 13.7 4.17 (13:40) 2.5 (11:50) 0 0 0 0 0

Gráficas

Temp. máximas Temp. mínimas Temp. medias Precipitaciones Rachas de viento máximas Velocidades máximas media en intervalos de 10 minutos

Datos horarios

Fecha y hora oficial Temperatura (ºC) Velocidad del viento (km/h) Dirección del viento Racha (km/h) Dirección de racha Precipitación (mm) Presión (hPa) Tendencia (hPa) Humedad (%)
2020-01-23 23:00:00 7.6 7 Sudeste 15 Sudeste 0 -- -- 96
2020-01-23 22:00:00 7.1 6 Sur 22 Sur 0 -- -- 95
2020-01-23 21:00:00 7.4 13 Sur 27 Sur 0 -- -- 95
2020-01-23 20:00:00 7.4 16 Sur 27 Sur 0 -- -- 96
2020-01-23 19:00:00 7.3 12 Sur 24 Sur 0 -- -- 92
2020-01-23 18:00:00 8.2 14 Sur 24 Sur 0 -- -- 90
2020-01-23 17:00:00 8.3 15 Sur 31 Sur 0 -- -- 90
2020-01-23 16:00:00 8 17 Sur 38 Sur 0.2 -- -- 91
2020-01-23 15:00:00 8.1 20 Sur 35 Sur 0 -- -- 89
2020-01-23 14:00:00 8 19 Sur 34 Sur 0 -- -- 91
2020-01-23 13:00:00 7.8 14 Sur 32 Sur 0 -- -- 91
2020-01-23 12:00:00 7.5 20 Sur 33 Sur 0 -- -- 94
2020-01-23 11:00:00 7 17 Sudeste 31 Sur 0 -- -- 94
2020-01-23 10:00:00 6.8 15 Sur 27 Sudeste 0.2 -- -- 97
2020-01-23 09:00:00 6.7 9 Sur 17 Sur 0.2 -- -- 98
2020-01-23 08:00:00 6.5 6 Sur 16 Sudeste 0.2 -- -- 96
2020-01-23 07:00:00 6.5 9 Sudeste 21 Sudeste 0 -- -- 96
2020-01-23 06:00:00 6.4 12 Sudeste 20 Sur 0 -- -- 96
2020-01-23 05:00:00 6.3 8 Sur 18 Sur 0.4 -- -- 97
2020-01-23 04:00:00 6.4 8 Sur 22 Sur 0 -- -- 95
2020-01-23 03:00:00 6.4 12 Sur 25 Sur 0 -- -- 96
2020-01-23 02:00:00 6.3 10 Sur 25 Sur 0 -- -- 94
2020-01-23 01:00:00 6.5 15 Sur 31 Sur 0 -- -- 96
2020-01-23 00:00:00 6.2 12 Sudeste 25 Sur 0 -- -- 96
2020-01-22 23:00:00 6.1 12 Sudeste 23 Sudeste 0 -- -- 96
2020-01-22 22:00:00 5.9 12 Sudeste 23 Sudeste 0 -- -- 94
2020-01-22 21:00:00 6 11 Sudeste 24 Sudeste 0.4 -- -- 96
2020-01-22 20:00:00 6 7 Sudeste 18 Sur 1.4 -- -- 97
2020-01-22 19:00:00 6.2 5 Sudeste 10 Sudeste 0.6 -- -- 97
2020-01-22 18:00:00 6.1 3 Sudeste 5 Este 0 -- -- 97
2020-01-22 17:00:00 5.8 0 Calma 9 Sur 0.2 -- -- 96
2020-01-22 16:00:00 5.8 8 Sur 22 Sudeste 0.6 -- -- 95
2020-01-22 15:00:00 5.8 7 Sur 21 Sudeste 0.6 -- -- 95
2020-01-22 14:00:00 6 12 Sudeste 25 Sur 0 -- -- 93
2020-01-22 13:00:00 5.9 14 Sudeste 28 Sudeste 0.2 -- -- 94
2020-01-22 12:00:00 5.4 9 Sudeste 21 Este 0 -- -- 96
2020-01-22 11:00:00 5 9 Sudeste 16 Este 0 -- -- 98
2020-01-22 10:00:00 4.5 8 Este 15 Este 0 -- -- 98
2020-01-22 09:00:00 4.3 6 Este 16 Este 0 -- -- 98
2020-01-22 08:00:00 4.2 9 Este 21 Este 0.2 -- -- 97
2020-01-22 07:00:00 4.1 8 Este 15 Nordeste 0 -- -- 96
2020-01-22 06:00:00 4.2 5 Nordeste 15 Nordeste 0 -- -- 95
2020-01-22 05:00:00 4.5 8 Nordeste 15 Nordeste 0.2 -- -- 93
2020-01-22 04:00:00 4.8 4 Nordeste 12 Nordeste 0 -- -- 90
2020-01-22 03:00:00 5 5 Nordeste 16 Nordeste 0 -- -- 89
2020-01-22 02:00:00 5.2 7 Este 25 Nordeste 0 -- -- 87
2020-01-22 01:00:00 5.4 10 Nordeste 21 Nordeste 0 -- -- 87
2020-01-22 00:00:00 5.2 3 Este 12 Este 0 -- -- 87
2020-01-21 23:00:00 4.9 4 Este 13 Nordeste 0 -- -- 87
2020-01-21 22:00:00 5.3 6 Nordeste 24 Nordeste 0 -- -- 84
2020-01-21 21:00:00 5.6 7 Nordeste 30 Este 0 -- -- 83
2020-01-21 20:00:00 6.7 16 Nordeste 27 Nordeste 0 -- -- 76
2020-01-21 19:00:00 7.1 12 Nordeste 33 Nordeste 0 -- -- 73
2020-01-21 18:00:00 7.6 13 Nordeste 29 Nordeste 0 -- -- 70
2020-01-21 17:00:00 7.7 18 Nordeste 31 Nordeste 0 -- -- 68
2020-01-21 16:00:00 8.1 15 Nordeste 31 Nordeste 0 -- -- 67
2020-01-21 15:00:00 7.8 17 Nordeste 38 Nordeste 0 -- -- 67
2020-01-21 14:00:00 7.9 21 Nordeste 44 Nordeste 0 -- -- 66
2020-01-21 13:00:00 8 18 Nordeste 35 Nordeste 0 -- -- 64
2020-01-21 12:00:00 6.6 21 Nordeste 39 Este 0 -- -- 67
2020-01-21 11:00:00 5.6 19 Nordeste 35 Nordeste 0 -- -- 70
2020-01-21 10:00:00 4.5 12 Nordeste 26 Nordeste 0 -- -- 75
2020-01-21 09:00:00 3 15 Nordeste 26 Nordeste 0 -- -- 79
2020-01-21 08:00:00 3.5 8 Nordeste 26 Nordeste 0 -- -- 76
2020-01-21 07:00:00 3.3 8 Nordeste 22 Nordeste 0 -- -- 77
2020-01-21 06:00:00 3.5 12 Nordeste 29 Nordeste 0 -- -- 76
2020-01-21 05:00:00 3.8 13 Nordeste 27 Nordeste 0 -- -- 76
2020-01-21 04:00:00 4.1 12 Norte 33 Nordeste 0 -- -- 75
2020-01-21 03:00:00 4.8 16 Este 36 Nordeste 0 -- -- 73
2020-01-21 02:00:00 5.1 20 Este 44 Este 0 -- -- 72
2020-01-21 01:00:00 4.1 15 Nordeste 35 Nordeste 0 -- -- 75
2020-01-21 00:00:00 4 14 Nordeste 31 Nordeste 0 -- -- 75
2020-01-20 23:00:00 3.9 9 Nordeste 19 Nordeste 0 -- -- 75
2020-01-20 22:00:00 4 14 Nordeste 28 Nordeste 0 -- -- 74
2020-01-20 21:00:00 3.8 17 Nordeste 42 Nordeste 0 -- -- 73
2020-01-20 20:00:00 4.1 24 Nordeste 46 Nordeste 0 -- -- 71
2020-01-20 19:00:00 4.5 21 Este 40 Nordeste 0 -- -- 67
2020-01-20 18:00:00 5.5 18 Nordeste 45 Nordeste 0 -- -- 63
2020-01-20 17:00:00 5.6 25 Nordeste 49 Nordeste 0 -- -- 63
2020-01-20 16:00:00 6 21 Nordeste 45 Nordeste 0 -- -- 62
2020-01-20 15:00:00 5.9 20 Nordeste 48 Nordeste 0 -- -- 62
2020-01-20 14:00:00 6 27 Nordeste 49 Nordeste 0 -- -- 57
2020-01-20 13:00:00 6.8 22 Nordeste 49 Nordeste 0 -- -- 51
2020-01-20 12:00:00 6 24 Nordeste 57 Nordeste 0 -- -- 43
2020-01-20 11:00:00 4.2 20 Nordeste 37 Nordeste 0 -- -- 46
2020-01-20 10:00:00 2.9 12 Norte 26 Norte 0 -- -- 56
2020-01-20 09:00:00 2.6 14 Nordeste 29 Nordeste 0 -- -- 56
2020-01-20 08:00:00 2.8 14 Nordeste 28 Nordeste 0 -- -- 55
2020-01-20 07:00:00 3.1 13 Nordeste 32 Nordeste 0 -- -- 52
2020-01-20 06:00:00 3.1 16 Nordeste 29 Nordeste 0 -- -- 52
2020-01-20 05:00:00 3.8 15 Nordeste 33 Nordeste 0 -- -- 49
2020-01-20 04:00:00 4 17 Nordeste 39 Nordeste 0 -- -- 50
2020-01-20 03:00:00 4.4 22 Nordeste 41 Nordeste 0 -- -- 49
2020-01-20 02:00:00 5 19 Nordeste 40 Nordeste 0 -- -- 47
2020-01-20 01:00:00 5.5 22 Nordeste 38 Nordeste 0 -- -- 45
2020-01-20 00:00:00 6.3 21 Nordeste 36 Nordeste 0 -- -- 44
2020-01-19 23:00:00 5.4 13 Norte 26 Norte 0 -- -- 56
2020-01-19 22:00:00 5.5 10 Norte 19 Norte 0 -- -- 60
2020-01-19 21:00:00 6.5 11 Norte 34 Norte 0 -- -- 59
2020-01-19 20:00:00 7.8 17 Norte 33 Nordeste 0 -- -- 57
2020-01-19 19:00:00 8.7 14 Norte 38 Nordeste 0 -- -- 59
2020-01-19 18:00:00 9.7 16 Nordeste 41 Nordeste 0 -- -- 58
2020-01-19 17:00:00 10.5 23 Nordeste 44 Norte 0 -- -- 61
2020-01-19 16:00:00 11.3 21 Norte 39 Norte 0 -- -- 60
2020-01-19 15:00:00 11 24 Norte 40 Norte 0 -- -- 62
2020-01-19 14:00:00 10.3 22 Norte 41 Norte 0 -- -- 70
2020-01-19 13:00:00 9.7 22 Norte 37 Norte 0 -- -- 74
2020-01-19 12:00:00 8.9 22 Norte 39 Norte 0 -- -- 78
2020-01-19 11:00:00 8.3 18 Norte 30 Norte 0 -- -- 86
2020-01-19 10:00:00 6.9 13 Norte 24 Norte 0 -- -- 95
2020-01-19 09:00:00 6.8 11 Norte 24 Norte 0 -- -- 97
2020-01-19 08:00:00 6.7 14 Noroeste 28 Noroeste 0 -- -- 98
2020-01-19 07:00:00 6.6 15 Noroeste 38 Norte 0 -- -- 98
2020-01-19 06:00:00 6.6 16 Noroeste 38 Noroeste 0 -- -- 97
2020-01-19 05:00:00 6.8 19 Noroeste 43 Noroeste 0 -- -- 95
2020-01-19 04:00:00 6.9 17 Noroeste 39 Noroeste 0 -- -- 93
2020-01-19 03:00:00 7.1 17 Noroeste 44 Norte 0 -- -- 92
2020-01-19 02:00:00 8.5 17 Noroeste 45 Noroeste 0.2 -- -- 93
2020-01-19 01:00:00 8.8 19 Noroeste 43 Noroeste 0 -- -- 95
2020-01-19 00:00:00 9.2 13 Noroeste 39 Noroeste 0 -- -- 91
2020-01-18 23:00:00 9.7 16 Noroeste 43 Noroeste 0 -- -- 92
2020-01-18 22:00:00 10.5 18 Noroeste 34 Oeste 0 -- -- 93
2020-01-18 21:00:00 11.1 11 Oeste 30 Noroeste 0 -- -- 95
2020-01-18 20:00:00 11.5 6 Oeste 20 Noroeste 0 -- -- 96
2020-01-18 19:00:00 12.1 8 Oeste 18 Oeste 0 -- -- 95
2020-01-18 18:00:00 12.6 9 Oeste 25 Noroeste 0 -- -- 93
2020-01-18 17:00:00 13.5 9 Oeste 18 Oeste 0 -- -- 94
2020-01-18 16:00:00 12.9 12 Noroeste 31 Noroeste 1.8 -- -- 94
2020-01-18 15:00:00 13.3 6 Sudoeste 21 Oeste 1.4 -- -- 98
2020-01-18 14:00:00 12.8 6 Sudoeste 24 Sudoeste 1 -- -- 98
2020-01-18 13:00:00 12.1 12 Sur 22 Sur 0.6 -- -- 97
2020-01-18 12:00:00 11.6 12 Sudoeste 30 Sudoeste 1.2 -- -- 98
2020-01-18 11:00:00 11.1 13 Sudoeste 29 Sudoeste 3 -- -- 98
2020-01-18 10:00:00 10.7 12 Sudoeste 27 Sudoeste 2.4 -- -- 98
2020-01-18 09:00:00 9.8 13 Sur 25 Sur 1.6 -- -- 97
2020-01-18 08:00:00 9.9 8 Sudoeste 20 Sur 1.2 -- -- 96
2020-01-18 07:00:00 9.9 8 Sur 18 Sudoeste 0 -- -- 93
2020-01-18 06:00:00 9.7 6 Sur 17 Sur 0 -- -- 80
2020-01-18 05:00:00 9.4 7 Sur 17 Sur 0 -- -- 85
2020-01-18 04:00:00 8.5 6 Sur 11 Sur 0 -- -- 98
2020-01-18 03:00:00 7.4 3 Sudeste 5 Sudeste 0 -- -- 99
2020-01-18 02:00:00 7 0 Calma 2 Sudeste 0 -- -- 99
2020-01-18 01:00:00 6.8 0 Calma 4 Noroeste 0 -- -- 99
2020-01-18 00:00:00 6.1 0 Calma 3 Sur 0 -- -- 98
2020-01-17 23:00:00 5.1 0 Calma 3 Sudoeste 0 -- -- 97
2020-01-17 22:00:00 5.6 0 Calma 4 Noroeste 0 -- -- 95
2020-01-17 21:00:00 6.8 3 Noroeste 6 Norte 0 -- -- 93
2020-01-17 20:00:00 7.2 3 Noroeste 6 Norte 0 -- -- 92
2020-01-17 19:00:00 9.7 4 Noroeste 6 Oeste 0 -- -- 84
2020-01-17 18:00:00 12.6 0 Calma 12 Norte 0 -- -- 72
2020-01-17 17:00:00 13.9 3 Norte 14 Nordeste 0 -- -- 65
2020-01-17 16:00:00 14 7 Norte 13 Norte 0 -- -- 67
2020-01-17 15:00:00 14.3 8 Norte 15 Norte 0 -- -- 61
2020-01-17 14:00:00 13.8 9 Norte 17 Norte 0 -- -- 64
2020-01-17 13:00:00 13.2 4 Noroeste 9 Oeste 0 -- -- 72
2020-01-17 12:00:00 10.8 5 Sudeste 8 Sudeste 0 -- -- 89
2020-01-17 11:00:00 9.3 2 Oeste 6 Sudeste 0 -- -- 99
2020-01-17 10:00:00 8 0 Calma 9 Oeste 0 -- -- 99
2020-01-17 09:00:00 7.1 3 Oeste 10 Oeste 0 -- -- 99
2020-01-17 08:00:00 6.6 2 Norte 9 Sudoeste 0 -- -- 98
2020-01-17 07:00:00 7.8 3 Sur 5 Sur 0 -- -- 97
2020-01-17 06:00:00 8.7 2 Norte 7 Oeste 0 -- -- 97
2020-01-17 05:00:00 9.7 3 Oeste 14 Noroeste 0 -- -- 97
2020-01-17 04:00:00 10.4 3 Sudoeste 13 Sudoeste 0.2 -- -- 97
2020-01-17 03:00:00 10.4 5 Sudoeste 21 Sudoeste 0 -- -- 98
2020-01-17 02:00:00 10.3 6 Sudoeste 16 Sudoeste 1.6 -- -- 97
2020-01-17 01:00:00 10 6 Sur 22 Sur 0.8 -- -- 96
2020-01-17 00:00:00 10.1 12 Sur 30 Sudoeste 0.2 -- -- 91
2020-01-16 23:00:00 10.7 12 Sudoeste 28 Sudoeste 0 -- -- 84
2020-01-16 22:00:00 10.2 14 Sur 33 Sur 0 -- -- 84
2020-01-16 21:00:00 9.7 9 Sur 27 Sudoeste 0 -- -- 83
2020-01-16 20:00:00 9.5 8 Sur 20 Sur 0 -- -- 72
2020-01-16 19:00:00 10.3 8 Sur 17 Sudoeste 0 -- -- 65
2020-01-16 18:00:00 11.8 8 Sur 26 Sudoeste 0 -- -- 59
2020-01-16 17:00:00 13.7 13 Sur 32 Sur 0 -- -- 50
2020-01-16 16:00:00 14.8 13 Sur 31 Sur 0.2 -- -- 48
2020-01-16 15:00:00 15.1 12 Sudoeste 33 Sur 0 -- -- 48
2020-01-16 14:00:00 14.9 13 Sudoeste 30 Sudoeste 0 -- -- 52
2020-01-16 13:00:00 14.1 14 Sur 27 Sur 0 -- -- 61
2020-01-16 12:00:00 12.2 14 Sur 22 Sur 0 -- -- 78
2020-01-16 11:00:00 10.4 12 Sur 22 Sur 0 -- -- 89
2020-01-16 10:00:00 8 9 Sur 19 Sudoeste 0 -- -- 99
2020-01-16 09:00:00 6.5 7 Sur 13 Sur 0 -- -- 99
2020-01-16 08:00:00 6.9 8 Sur 14 Sur 0 -- -- 99
2020-01-16 07:00:00 6.2 6 Sur 12 Sur 0 -- -- 99
2020-01-16 06:00:00 7.2 5 Sur 13 Sur 0 -- -- 98
2020-01-16 05:00:00 7.9 9 Sur 15 Sur 0 -- -- 99
2020-01-16 04:00:00 7.9 7 Sur 13 Sur 0.2 -- -- 99
2020-01-16 03:00:00 8.4 9 Sur 18 Sur 0 -- -- 99
2020-01-16 02:00:00 8.4 8 Sur 13 Sur 0 -- -- 98
2020-01-16 01:00:00 9.4 8 Sur 16 Sudoeste 0 -- -- 98
2020-01-16 00:00:00 9.7 5 Sur 13 Sur 0 -- -- 98
2020-01-15 23:00:00 9.9 8 Sur 17 Sur 0 -- -- 98
2020-01-15 22:00:00 9.6 7 Sur 16 Sur 0 -- -- 98
2020-01-15 21:00:00 9.5 6 Sur 16 Sur 0 -- -- 98
2020-01-15 20:00:00 9.6 9 Sur 19 Sudoeste 0 -- -- 98
2020-01-15 19:00:00 9.7 9 Sur 16 Sudoeste 0 -- -- 97
2020-01-15 18:00:00 9.9 6 Sudoeste 14 Sur 0 -- -- 97
2020-01-15 17:00:00 10.2 10 Sur 18 Sur 0.8 -- -- 96
2020-01-15 16:00:00 11.1 9 Sur 18 Sur 0 -- -- 93
2020-01-15 15:00:00 11.8 9 Sur 18 Sur 0 -- -- 87
2020-01-15 14:00:00 11.7 7 Sur 22 Sudoeste 0 -- -- 86
2020-01-15 13:00:00 12.1 13 Sur 34 Sur 0 -- -- 83
2020-01-15 12:00:00 12.5 13 Sur 34 Sur 0 -- -- 82
2020-01-15 11:00:00 11.4 14 Sudoeste 31 Sudoeste 0 -- -- 85
2020-01-15 10:00:00 9.6 10 Sur 23 Sur 0 -- -- 92
2020-01-15 09:00:00 8.2 10 Sur 24 Sudoeste 0 -- -- 92
2020-01-15 08:00:00 7 6 Sur 22 Sur 0 -- -- 94
2020-01-15 07:00:00 6.5 11 Sur 28 Sur 0 -- -- 93
2020-01-15 06:00:00 6.5 13 Sur 31 Sur 0 -- -- 92
2020-01-15 05:00:00 6.6 8 Sur 21 Sudoeste 0 -- -- 92
2020-01-15 04:00:00 6.5 5 Sur 14 Sur 0 -- -- 91
2020-01-15 03:00:00 6.7 9 Sur 18 Sur 0 -- -- 93
2020-01-15 02:00:00 6.2 5 Sur 15 Sur 0 -- -- 92
2020-01-15 01:00:00 7 8 Sur 22 Sur 0 -- -- 90
2020-01-15 00:00:00 7.1 9 Sur 22 Sur 0 -- -- 89
2020-01-14 23:00:00 7.4 10 Sur 21 Sur 0 -- -- 88
2020-01-14 22:00:00 7.9 11 Sur 20 Sur 0 -- -- 88
2020-01-14 21:00:00 8.1 12 Sur 23 Sur 0 -- -- 87
2020-01-14 20:00:00 8.2 9 Sur 21 Sur 0 -- -- 85
2020-01-14 19:00:00 8.8 12 Sur 23 Sur 0 -- -- 81
2020-01-14 18:00:00 9.4 13 Sur 25 Sur 0 -- -- 78
2020-01-14 17:00:00 10 11 Sur 26 Sur 0 -- -- 76
2020-01-14 16:00:00 10.5 12 Sur 23 Sur 0 -- -- 73
2020-01-14 15:00:00 9.6 9 Sur 18 Sur 0 -- -- 78
2020-01-14 14:00:00 10 9 Sur 18 Sur 0 -- -- 72
2020-01-14 13:00:00 10.5 9 Sur 17 Sudeste 0 -- -- 69
2020-01-14 12:00:00 9.9 11 Sur 16 Sur 0 -- -- 72
2020-01-14 11:00:00 7.6 6 Sudeste 10 Sudeste 0 -- -- 80
2020-01-14 10:00:00 3 0 Calma 5 Sudoeste 0 -- -- 99
2020-01-14 09:00:00 -0.5 0 Calma 2 Noroeste 0 -- -- 99
2020-01-14 08:00:00 -1.2 0 Calma 3 Norte 0 -- -- 98
2020-01-14 07:00:00 -0.9 0 Calma 3 Norte 0 -- -- 98
2020-01-14 06:00:00 -1 0 Calma 4 Norte 0 -- -- 98
2020-01-14 05:00:00 -1 2 Noroeste 3 Noroeste 0 -- -- 98
2020-01-14 04:00:00 -0.6 0 Calma 4 Norte 0 -- -- 97
2020-01-14 03:00:00 -1 3 Noroeste 5 Noroeste 0 -- -- 97
2020-01-14 02:00:00 -0.8 0 Calma 4 Noroeste 0 -- -- 95
2020-01-14 01:00:00 0.2 0 Calma 3 Norte 0 -- -- 93
2020-01-14 00:00:00 2.1 0 Calma 11 Noroeste 0 -- -- 88
2020-01-13 23:00:00 4.4 6 Noroeste 13 Noroeste 0 -- -- 81
2020-01-13 22:00:00 2.2 3 Oeste 8 Noroeste 0 -- -- 94
2020-01-13 21:00:00 3 0 Calma 8 Sudoeste 0 -- -- 88
2020-01-13 20:00:00 5.3 3 Sudoeste 9 Sudoeste 0 -- -- 80
2020-01-13 19:00:00 6.7 3 Oeste 6 Oeste 0 -- -- 72
2020-01-13 18:00:00 10 2 Sudoeste 14 Sudoeste 0 -- -- 59
2020-01-13 17:00:00 12.2 5 Oeste 14 Noroeste 0 -- -- 53
2020-01-13 16:00:00 12.1 8 Noroeste 18 Noroeste 0 -- -- 54
2020-01-13 15:00:00 12.7 7 Oeste 21 Noroeste 0 -- -- 47
2020-01-13 14:00:00 12.2 7 Oeste 26 Sur 0 -- -- 51
2020-01-13 13:00:00 11.9 9 Sudoeste 20 Sur 0 -- -- 55
2020-01-13 12:00:00 10.6 6 Sur 16 Sur 0 -- -- 63
2020-01-13 11:00:00 7.7 4 Sudeste 6 Sudeste 0 -- -- 76
2020-01-13 10:00:00 1.9 0 Calma 4 Noroeste 0 -- -- 99
2020-01-13 09:00:00 -0.6 2 Norte 4 Norte 0 -- -- 97
2020-01-13 08:00:00 -0.7 0 Calma 5 Oeste 0 -- -- 98
2020-01-13 07:00:00 -1.2 2 Oeste 4 Noroeste 0 -- -- 97
2020-01-13 06:00:00 -0.7 0 Calma 4 Sudoeste 0 -- -- 96
2020-01-13 05:00:00 -0.4 2 Oeste 5 Oeste 0 -- -- 97
2020-01-13 04:00:00 -1.3 2 Oeste 4 Noroeste 0 -- -- 97
2020-01-13 03:00:00 -1.2 2 Noroeste 3 Noroeste 0 -- -- 96
2020-01-13 02:00:00 -1 2 Noroeste 4 Sur 0 -- -- 96
2020-01-13 01:00:00 -0.8 0 Calma 4 Noroeste 0 -- -- 95
2020-01-13 00:00:00 -0.5 0 Calma 3 Noroeste 0 -- -- 94
2020-01-12 23:00:00 -0.2 0 Calma 5 Noroeste 0 -- -- 93
2020-01-12 22:00:00 0.9 3 Noroeste 7 Noroeste 0 -- -- 91
2020-01-12 21:00:00 2.4 5 Noroeste 9 Noroeste 0 -- -- 86
2020-01-12 20:00:00 3.7 5 Noroeste 7 Noroeste 0 -- -- 83
2020-01-12 19:00:00 7.4 5 Noroeste 9 Noroeste 0 -- -- 71
2020-01-12 18:00:00 10.2 5 Noroeste 10 Nordeste 0 -- -- 61
2020-01-12 17:00:00 12.7 5 Norte 16 Norte 0 -- -- 49
2020-01-12 16:00:00 13.2 7 Noroeste 15 Norte 0 -- -- 40
2020-01-12 15:00:00 12.9 8 Noroeste 17 Noroeste 0 -- -- 49
2020-01-12 14:00:00 13.2 6 Norte 14 Norte 0 -- -- 50
2020-01-12 13:00:00 13 4 Sudeste 9 Sudeste 0 -- -- 49
2020-01-12 12:00:00 12.4 4 Sudeste 7 Sur 0 -- -- 51
2020-01-12 11:00:00 10.2 2 Sudeste 4 Sudeste 0 -- -- 61
2020-01-12 10:00:00 3.4 0 Calma 2 Noroeste 0 -- -- 96
2020-01-12 09:00:00 -0.7 0 Calma 3 Noroeste 0 -- -- 98
2020-01-12 08:00:00 -1 2 Noroeste 3 Noroeste 0 -- -- 97
2020-01-12 07:00:00 -1 2 Noroeste 3 Noroeste 0 -- -- 97
2020-01-12 06:00:00 -0.8 2 Noroeste 4 Norte 0 -- -- 97
2020-01-12 05:00:00 -0.7 2 Noroeste 4 Noroeste 0 -- -- 97
2020-01-12 04:00:00 -0.6 3 Noroeste 4 Noroeste 0 -- -- 96
2020-01-12 03:00:00 -0.4 0 Calma 3 Noroeste 0 -- -- 96
2020-01-12 02:00:00 0 2 Noroeste 3 Noroeste 0 -- -- 96
2020-01-12 01:00:00 0.3 2 Noroeste 4 Noroeste 0 -- -- 96
2020-01-12 00:00:00 0.5 2 Noroeste 4 Noroeste 0 -- -- 95
2020-01-11 23:00:00 0.7 0 Calma 3 Noroeste 0 -- -- 93
2020-01-11 22:00:00 1.4 0 Calma 3 Noroeste 0 -- -- 90
2020-01-11 21:00:00 2.6 3 Norte 8 Norte 0 -- -- 86
2020-01-11 20:00:00 3.6 2 Norte 8 Noroeste 0 -- -- 83
2020-01-11 19:00:00 6.8 4 Noroeste 10 Norte 0 -- -- 71
2020-01-11 18:00:00 10.1 3 Nordeste 18 Este 0 -- -- 60
2020-01-11 17:00:00 11.8 9 Este 20 Este 0 -- -- 51
2020-01-11 16:00:00 12.3 9 Este 21 Este 0 -- -- 51
2020-01-11 15:00:00 11.5 12 Nordeste 25 Este 0 -- -- 52
2020-01-11 14:00:00 10.8 10 Este 23 Este 0 -- -- 56
2020-01-11 13:00:00 9.3 8 Nordeste 21 Este 0 -- -- 64
2020-01-11 12:00:00 7.9 10 Nordeste 19 Nordeste 0 -- -- 66
2020-01-11 11:00:00 6.8 7 Este 14 Nordeste 0 -- -- 70
2020-01-11 10:00:00 4.6 5 Este 13 Nordeste 0 -- -- 76
2020-01-11 09:00:00 2.2 4 Nordeste 10 Nordeste 0 -- -- 83
2020-01-11 08:00:00 2.4 6 Nordeste 12 Nordeste 0 -- -- 82
2020-01-11 07:00:00 1.7 4 Norte 10 Nordeste 0 -- -- 87
2020-01-11 06:00:00 0.5 3 Noroeste 6 Norte 0 -- -- 95
2020-01-11 05:00:00 -0.3 4 Norte 6 Norte 0 -- -- 98
2020-01-11 04:00:00 -0.3 2 Norte 5 Nordeste 0 -- -- 97
2020-01-11 03:00:00 -0.1 3 Norte 5 Nordeste 0 -- -- 98
2020-01-11 02:00:00 -0.2 0 Calma 2 Norte 0 -- -- 97
2020-01-11 01:00:00 0.3 0 Calma 4 Noroeste 0 -- -- 96
2020-01-11 00:00:00 1.3 2 Noroeste 3 Noroeste 0 -- -- 94
2020-01-10 23:00:00 3 3 Norte 7 Norte 0 -- -- 92
2020-01-10 22:00:00 4.7 5 Norte 10 Norte 0 -- -- 90
2020-01-10 21:00:00 4.6 6 Noroeste 10 Noroeste 0 -- -- 86
2020-01-10 20:00:00 6 6 Norte 13 Norte 0 -- -- 83
2020-01-10 19:00:00 7.1 7 Norte 18 Norte 0 -- -- 79
2020-01-10 18:00:00 8.9 9 Norte 23 Norte 0 -- -- 73
2020-01-10 17:00:00 10.3 11 Nordeste 24 Nordeste 0 -- -- 64
2020-01-10 16:00:00 10.6 13 Nordeste 22 Nordeste 0 -- -- 64
2020-01-10 15:00:00 9.8 11 Este 24 Nordeste 0 -- -- 66
2020-01-10 14:00:00 8.4 13 Nordeste 24 Nordeste 0 -- -- 71
2020-01-10 13:00:00 8.1 12 Nordeste 24 Norte 0 -- -- 69
2020-01-10 12:00:00 7.2 16 Nordeste 27 Nordeste 0 -- -- 71
2020-01-10 11:00:00 6.8 12 Norte 22 Norte 0 -- -- 71
2020-01-10 10:00:00 4.9 10 Norte 16 Norte 0 -- -- 83
2020-01-10 09:00:00 1.8 6 Noroeste 12 Noroeste 0 -- -- 97
2020-01-10 08:00:00 2.1 5 Norte 10 Norte 0 -- -- 96
2020-01-10 07:00:00 3 5 Norte 11 Norte 0 -- -- 96
2020-01-10 06:00:00 3.9 6 Norte 10 Norte 0 -- -- 96
2020-01-10 05:00:00 4.4 4 Norte 11 Noroeste 0 -- -- 96
2020-01-10 04:00:00 5.9 8 Noroeste 17 Norte 0 -- -- 96
2020-01-10 03:00:00 6.8 6 Norte 26 Noroeste 0 -- -- 95
2020-01-10 02:00:00 8 12 Noroeste 28 Noroeste 0 -- -- 94
2020-01-10 01:00:00 8.8 11 Noroeste 24 Noroeste 0 -- -- 95
2020-01-10 00:00:00 9.6 10 Noroeste 23 Noroeste 0 -- -- 94
2020-01-09 23:00:00 9.7 7 Noroeste 15 Noroeste 0 -- -- 93
2020-01-09 22:00:00 8.7 5 Noroeste 10 Noroeste 0 -- -- 94
2020-01-09 21:00:00 8.9 3 Norte 16 Norte 0 -- -- 91
2020-01-09 20:00:00 7.9 5 Noroeste 21 Oeste 0 -- -- 85
2020-01-09 19:00:00 9 10 Noroeste 18 Oeste 0 -- -- 82
2020-01-09 18:00:00 10.6 8 Noroeste 15 Noroeste 0 -- -- 76
2020-01-09 17:00:00 12.9 8 Noroeste 14 Norte 0 -- -- 68
2020-01-09 16:00:00 13.9 8 Norte 15 Noroeste 0 -- -- 58
2020-01-09 15:00:00 13.6 7 Norte 15 Noroeste 0 -- -- 59
2020-01-09 14:00:00 13.1 9 Norte 17 Noroeste 0 -- -- 56
2020-01-09 13:00:00 13 6 Noroeste 18 Norte 0 -- -- 51
2020-01-09 12:00:00 12 5 Noroeste 10 Noroeste 0 -- -- 61
2020-01-09 11:00:00 9.2 5 Sudeste 8 Sur 0 -- -- 77
2020-01-09 10:00:00 5.6 2 Norte 9 Noroeste 0 -- -- 98
2020-01-09 09:00:00 1.1 0 Calma 5 Sudoeste 0 -- -- 99
2020-01-09 08:00:00 0.5 3 Noroeste 4 Noroeste 0 -- -- 98
2020-01-09 07:00:00 0.6 2 Noroeste 8 Norte 0 -- -- 98
2020-01-09 06:00:00 0.7 3 Noroeste 6 Noroeste 0 -- -- 98
2020-01-09 05:00:00 0.3 2 Oeste 5 Noroeste 0 -- -- 98
2020-01-09 04:00:00 0.5 0 Calma 3 Noroeste 0 -- -- 98
2020-01-09 03:00:00 0.5 0 Calma 4 Noroeste 0 -- -- 97
2020-01-09 02:00:00 0.5 0 Calma 4 Noroeste 0 -- -- 96
2020-01-09 01:00:00 2.1 3 Norte 4 Norte 0 -- -- 96
2020-01-09 00:00:00 2.7 0 Calma 9 Noroeste 0 -- -- 96
2020-01-08 23:00:00 3.5 0 Calma 4 Oeste 0 -- -- 95
2020-01-08 22:00:00 4.9 2 Norte 4 Noroeste 0 -- -- 95
2020-01-08 21:00:00 4.4 3 Norte 5 Oeste 0 -- -- 91
2020-01-08 20:00:00 6 4 Noroeste 5 Oeste 0 -- -- 81
2020-01-08 19:00:00 9.2 0 Calma 3 Noroeste 0 -- -- 68
2020-01-08 18:00:00 13.4 0 Calma 9 Norte 0 -- -- 60
2020-01-08 17:00:00 17.5 5 Noroeste 10 Noroeste 0 -- -- 42
2020-01-08 16:00:00 18.8 2 Este 8 Sudeste 0 -- -- 30
2020-01-08 15:00:00 18.3 4 Este 9 Este 0 -- -- 39
2020-01-08 14:00:00 17.6 3 Nordeste 8 Nordeste 0 -- -- 38
2020-01-08 13:00:00 15.9 3 Nordeste 7 Este 0 -- -- 40
2020-01-08 12:00:00 14 3 Este 6 Norte 0 -- -- 45
2020-01-08 11:00:00 11.7 2 Norte 4 Norte 0 -- -- 60
2020-01-08 10:00:00 4.8 4 Noroeste 6 Noroeste 0 -- -- 89
2020-01-08 09:00:00 0.9 3 Noroeste -- -- 0 -- -- 96
2020-01-08 08:00:00 0.3 3 Noroeste 4 Noroeste 0 -- -- 96
2020-01-08 07:00:00 0.5 2 Noroeste 5 Noroeste 0 -- -- 95
2020-01-08 06:00:00 0.5 3 Noroeste 5 Noroeste 0 -- -- 95
2020-01-08 05:00:00 0.5 3 Norte 5 Noroeste 0 -- -- 94
2020-01-08 04:00:00 0.8 3 Noroeste 5 Noroeste 0 -- -- 94
2020-01-08 03:00:00 1.2 3 Noroeste 4 Noroeste 0 -- -- 96
2020-01-08 02:00:00 1.5 0 Calma 3 Noroeste 0 -- -- 96
2020-01-08 01:00:00 2.1 3 Noroeste 4 Noroeste 0 -- -- 95
2020-01-08 00:00:00 2.7 2 Noroeste 4 Noroeste 0 -- -- 93
2020-01-07 23:00:00 4 3 Noroeste 8 Norte 0 -- -- 92
2020-01-07 22:00:00 3.4 5 Norte 7 Noroeste 0 -- -- 94
2020-01-07 21:00:00 3.9 0 Calma 4 Norte 0 -- -- 91
2020-01-07 20:00:00 5.1 4 Norte 6 Norte 0 -- -- 86
2020-01-07 19:00:00 8 3 Noroeste 5 Noroeste 0 -- -- 75
2020-01-07 18:00:00 12.9 0 Calma 8 Nordeste 0 -- -- 57
2020-01-07 17:00:00 15.8 5 Este 11 Este 0 -- -- 45
2020-01-07 16:00:00 16.3 8 Nordeste 14 Nordeste 0 -- -- 46
2020-01-07 15:00:00 16.4 5 Nordeste 10 Nordeste 0 -- -- 40
2020-01-07 14:00:00 15.5 4 Nordeste 11 Nordeste 0 -- -- 47
2020-01-07 13:00:00 15.1 5 Nordeste 9 Nordeste 0 -- -- 47
2020-01-07 12:00:00 13.2 2 Este 10 Norte 0 -- -- 53
2020-01-07 11:00:00 11 3 Norte 6 Norte 0 -- -- 69
2020-01-07 10:00:00 5 2 Noroeste 4 Noroeste 0 -- -- 95
2020-01-07 09:00:00 2.3 3 Noroeste 9 Norte 0 -- -- 92
2020-01-07 08:00:00 1.4 5 Noroeste 7 Noroeste 0 -- -- 97
2020-01-07 07:00:00 1.6 3 Noroeste 8 Norte 0 -- -- 93
2020-01-07 06:00:00 1.3 6 Norte 9 Noroeste 0 -- -- 96
2020-01-07 05:00:00 3 2 Noroeste 10 Norte 0 -- -- 97
2020-01-07 04:00:00 2 4 Noroeste 7 Noroeste 0 -- -- 97
2020-01-07 03:00:00 1.4 3 Norte 7 Noroeste 0 -- -- 96
2020-01-07 02:00:00 1.5 4 Noroeste 6 Noroeste 0 -- -- 97
2020-01-07 01:00:00 1.9 0 Calma 3 Sudoeste 0 -- -- 97
2020-01-07 00:00:00 2 0 Calma 3 Noroeste 0 -- -- 95
2020-01-06 23:00:00 3.3 0 Calma 5 Noroeste 0 -- -- 92
2020-01-06 22:00:00 5.4 4 Noroeste 12 Norte 0 -- -- 87
2020-01-06 21:00:00 6.2 6 Norte 11 Noroeste 0 -- -- 86
2020-01-06 20:00:00 5.2 5 Noroeste 9 Noroeste 0 -- -- 86
2020-01-06 19:00:00 8.3 4 Noroeste 7 Noroeste 0 -- -- 71
2020-01-06 18:00:00 12 5 Noroeste 11 Norte 0 -- -- 60
2020-01-06 17:00:00 15.2 4 Este 8 Nordeste 0 -- -- 51
2020-01-06 16:00:00 16.2 3 Nordeste 9 Este 0 -- -- 45
2020-01-06 15:00:00 15.9 2 Este 10 Sur 0 -- -- 46
2020-01-06 14:00:00 14.8 3 Norte 7 Sur 0 -- -- 53
2020-01-06 13:00:00 13.4 5 Sudeste 6 Sudeste 0 -- -- 58
2020-01-06 12:00:00 12.1 4 Este 9 Nordeste 0 -- -- 68
2020-01-06 11:00:00 9.6 0 Calma 6 Norte 0 -- -- 82
2020-01-06 10:00:00 4.6 2 Norte 7 Noroeste 0 -- -- 100